Time;durP1;ratioP1;P1;durP2;ratioP2;P2;SDS_P1;SDS_P2;PMS_P1;PMS_P2;Temp;Humidity;BMP_temperature;BMP_pressure;BME280_temperature;BME280_humidity;BME280_pressure;Samples;Min_cycle;Max_cycle;Signal;HPM_P1;HPM_P2
2023/07/01 00:00:07;;;;;;;1.67;0.40;;;;;;;19.96;95.69;100086.78;7356075;19;20046;-65
2023/07/01 00:02:36;;;;;;;1.77;0.40;;;;;;;19.99;96.04;100089.00;7356658;19;20526;-66
2023/07/01 00:05:04;;;;;;;1.63;0.40;;;;;;;19.99;95.89;100080.97;7362075;19;20006;-66
2023/07/01 00:07:31;;;;;;;1.98;0.40;;;;;;;19.99;95.93;100080.16;7362380;19;20007;-65
2023/07/01 00:09:58;;;;;;;1.35;0.40;;;;;;;19.97;96.09;100077.72;7358706;19;20005;-65
2023/07/01 00:12:26;;;;;;;3.50;0.50;;;;;;;19.97;96.19;100072.38;7359463;19;20628;-66
2023/07/01 00:14:56;;;;;;;3.35;0.40;;;;;;;19.94;95.99;100069.38;7359767;19;20022;-64
2023/07/01 00:17:25;;;;;;;3.13;0.50;;;;;;;19.95;96.06;100063.81;7356502;19;20820;-66
2023/07/01 00:19:52;;;;;;;2.03;0.40;;;;;;;19.96;96.14;100064.63;7358272;19;20027;-66
2023/07/01 00:22:19;;;;;;;2.70;0.40;;;;;;;19.95;96.12;100069.16;7360970;19;20018;-65
2023/07/01 00:24:46;;;;;;;1.88;0.40;;;;;;;19.96;96.07;100060.06;7358833;19;20094;-65
2023/07/01 00:27:13;;;;;;;1.00;0.40;;;;;;;19.98;95.86;100060.66;7359387;19;20079;-65
2023/07/01 00:29:42;;;;;;;1.50;0.38;;;;;;;20.01;95.89;100062.84;7357535;19;20505;-65
2023/07/01 00:32:09;;;;;;;1.45;0.30;;;;;;;20.01;95.74;100054.06;7349486;19;20021;-65
2023/07/01 00:34:36;;;;;;;2.40;0.30;;;;;;;20.03;95.51;100057.28;7357203;19;20019;-65
2023/07/01 00:37:04;;;;;;;0.90;0.35;;;;;;;20.04;95.24;100046.38;7357969;19;20032;-64
2023/07/01 00:39:31;;;;;;;1.15;0.30;;;;;;;20.06;95.14;100056.84;7359383;19;20011;-66
2023/07/01 00:41:58;;;;;;;1.13;0.30;;;;;;;20.08;95.03;100060.88;7357621;19;20037;-65
2023/07/01 00:44:25;;;;;;;2.40;0.35;;;;;;;20.10;95.09;100051.81;7358299;19;20018;-65
2023/07/01 00:46:52;;;;;;;1.83;0.30;;;;;;;20.11;95.26;100040.91;7351619;19;20383;-65
2023/07/01 00:49:19;;;;;;;0.88;0.35;;;;;;;20.12;94.97;100047.03;7359297;19;20362;-65
2023/07/01 00:51:46;;;;;;;2.65;0.50;;;;;;;20.12;94.79;100039.03;7359768;19;20038;-65
2023/07/01 00:54:13;;;;;;;1.27;0.40;;;;;;;20.12;94.82;100023.00;7356766;19;20023;-65
2023/07/01 00:56:40;;;;;;;2.85;0.85;;;;;;;20.13;94.13;100028.13;7356911;19;20019;-65
2023/07/01 00:59:07;;;;;;;1.02;0.30;;;;;;;20.13;94.48;100035.31;7358854;19;20018;-65
2023/07/01 01:01:40;;;;;;;1.50;0.55;;;;;;;20.12;94.20;100023.00;7356544;19;20667;-65
2023/07/01 01:04:20;;;;;;;1.60;0.45;;;;;;;20.12;94.36;100031.00;7357564;19;20018;-65
2023/07/01 01:06:54;;;;;;;1.60;0.30;;;;;;;20.13;94.54;100032.66;7357143;19;20260;-66
2023/07/01 01:09:36;;;;;;;1.13;0.20;;;;;;;20.10;94.37;100020.59;7357883;19;20010;-65
2023/07/01 01:12:07;;;;;;;0.80;0.20;;;;;;;20.08;94.69;100018.13;7362727;19;20014;-66
2023/07/01 01:14:35;;;;;;;0.98;0.30;;;;;;;20.06;94.37;100022.91;7366184;19;20152;-66
2023/07/01 01:17:05;;;;;;;1.65;0.30;;;;;;;20.03;94.43;100017.22;7364709;19;20054;-65
2023/07/01 01:19:59;;;;;;;1.13;0.30;;;;;;;20.02;94.60;100015.59;7364466;19;20049;-66
2023/07/01 01:22:33;;;;;;;1.67;0.30;;;;;;;20.03;94.25;100012.69;7366922;19;20347;-64
2023/07/01 01:25:13;;;;;;;1.15;0.30;;;;;;;20.03;94.77;100019.88;7366477;19;20025;-65
2023/07/01 01:27:41;;;;;;;0.40;0.20;;;;;;;20.03;95.02;100018.03;7365431;19;20807;-65
2023/07/01 01:30:09;;;;;;;1.90;0.20;;;;;;;20.00;95.48;100007.81;7362361;19;20097;-65
2023/07/01 01:32:36;;;;;;;0.70;0.20;;;;;;;19.98;95.64;100012.59;7364828;19;20130;-65
2023/07/01 01:35:03;;;;;;;0.40;0.20;;;;;;;19.96;95.65;100006.66;7365355;19;20041;-65
2023/07/01 01:37:42;;;;;;;0.80;0.20;;;;;;;19.94;95.94;100014.09;7367161;19;20264;-65
2023/07/01 01:40:22;;;;;;;3.85;1.20;;;;;;;19.97;96.23;100013.63;7365077;19;20489;-65
2023/07/01 01:42:55;;;;;;;0.82;0.20;;;;;;;19.97;96.82;100005.59;7365919;19;20022;-64
2023/07/01 01:45:22;;;;;;;1.55;0.20;;;;;;;19.97;96.10;100004.78;7364429;19;20022;-64
2023/07/01 01:47:50;;;;;;;1.00;0.30;;;;;;;19.97;95.70;100008.28;7358853;19;20019;-64
2023/07/01 01:50:20;;;;;;;0.65;0.20;;;;;;;19.98;95.67;100009.09;7359014;19;20052;-64
2023/07/01 01:52:51;;;;;;;1.05;0.25;;;;;;;19.96;94.85;100001.31;7365762;19;20018;-64
2023/07/01 01:55:20;;;;;;;1.98;0.45;;;;;;;19.99;95.10;99995.50;7366316;19;20019;-64
2023/07/01 01:57:49;;;;;;;0.50;0.15;;;;;;;20.00;93.86;99997.16;7362728;19;20030;-64
2023/07/01 02:00:16;;;;;;;0.50;0.20;;;;;;;19.98;94.02;99993.88;7362211;19;20025;-64
2023/07/01 02:02:43;;;;;;;1.92;0.20;;;;;;;19.99;94.01;99990.16;7363694;19;20087;-66
2023/07/01 02:05:10;;;;;;;0.25;0.13;;;;;;;20.02;93.70;99988.88;7363194;19;20018;-64
2023/07/01 02:07:38;;;;;;;0.63;0.40;;;;;;;20.04;93.24;99986.78;7364894;19;20101;-64
2023/07/01 02:10:06;;;;;;;1.13;0.28;;;;;;;20.01;92.84;99981.94;7362626;19;20046;-64
2023/07/01 02:12:33;;;;;;;0.30;0.20;;;;;;;20.03;92.97;99990.50;7363391;19;20061;-64
2023/07/01 02:15:00;;;;;;;2.30;0.20;;;;;;;20.02;92.35;99979.00;7362695;19;20023;-65
2023/07/01 02:17:27;;;;;;;2.05;0.20;;;;;;;20.01;92.67;99985.38;7362176;19;20487;-65
2023/07/01 02:19:54;;;;;;;0.88;0.20;;;;;;;20.04;92.23;99982.25;7360494;19;20027;-65
2023/07/01 02:22:21;;;;;;;0.90;0.22;;;;;;;20.04;92.28;99982.25;7364697;19;20045;-65
2023/07/01 02:24:48;;;;;;;2.05;0.30;;;;;;;20.06;92.83;99977.47;7363414;19;20482;-64
2023/07/01 02:27:15;;;;;;;0.68;0.20;;;;;;;20.10;92.63;99972.50;7363371;19;20038;-65
2023/07/01 02:29:44;;;;;;;1.20;0.20;;;;;;;20.08;92.16;99985.28;7359765;19;20097;-64
2023/07/01 02:32:11;;;;;;;4.18;0.25;;;;;;;20.07;91.93;99979.13;7362380;19;20011;-64
2023/07/01 02:34:38;;;;;;;0.75;0.20;;;;;;;20.05;91.88;99978.56;7359845;19;20017;-64
2023/07/01 02:37:05;;;;;;;3.10;0.30;;;;;;;20.05;92.04;99985.75;7361883;19;20006;-64
2023/07/01 02:39:32;;;;;;;1.40;0.20;;;;;;;20.03;91.85;99983.31;7363462;19;20037;-64
2023/07/01 02:42:00;;;;;;;2.05;0.25;;;;;;;20.01;91.92;99977.38;7359101;19;20014;-66
2023/07/01 02:44:27;;;;;;;1.05;0.20;;;;;;;19.99;91.93;99989.34;7364380;19;20014;-65
2023/07/01 02:46:54;;;;;;;1.63;0.20;;;;;;;19.97;91.80;99983.44;7361355;19;20098;-64
2023/07/01 02:49:21;;;;;;;1.50;0.32;;;;;;;19.95;91.96;99991.69;7362039;19;20050;-64
2023/07/01 02:51:48;;;;;;;1.65;0.30;;;;;;;19.94;91.92;99986.56;7363040;19;20613;-64
2023/07/01 02:54:15;;;;;;;2.65;0.32;;;;;;;19.96;92.13;99995.97;7361010;19;20040;-65
2023/07/01 02:56:42;;;;;;;1.85;0.30;;;;;;;19.97;91.96;99988.75;7363553;19;21085;-65
2023/07/01 02:59:10;;;;;;;1.00;0.20;;;;;;;19.95;92.26;99981.00;7361690;19;20014;-64
2023/07/01 03:01:37;;;;;;;1.40;0.50;;;;;;;19.95;92.43;99982.88;7357858;19;20082;-65
2023/07/01 03:04:06;;;;;;;4.22;0.40;;;;;;;19.93;92.44;99987.63;7362165;19;20010;-65
2023/07/01 03:06:46;;;;;;;0.85;0.30;;;;;;;19.93;93.37;99984.94;7359378;19;20690;-65
2023/07/01 03:09:14;;;;;;;1.50;0.38;;;;;;;19.92;93.69;99980.66;7361368;19;20006;-65
2023/07/01 03:11:41;;;;;;;2.55;0.40;;;;;;;19.91;94.21;99989.72;7360280;19;20526;-64
2023/07/01 03:14:08;;;;;;;1.23;0.30;;;;;;;19.88;94.56;99993.66;7365705;19;20022;-66
2023/07/01 03:16:35;;;;;;;1.67;0.43;;;;;;;19.84;95.22;99989.84;7360657;19;20097;-66
2023/07/01 03:19:05;;;;;;;3.10;0.30;;;;;;;19.80;95.40;99979.88;7355987;19;20011;-64
2023/07/01 03:21:33;;;;;;;2.10;0.70;;;;;;;19.79;95.65;99978.25;7359922;19;20026;-64
2023/07/01 03:24:01;;;;;;;1.48;0.38;;;;;;;19.80;95.88;99974.53;7362488;19;20113;-64
2023/07/01 03:26:28;;;;;;;1.30;0.40;;;;;;;19.82;95.48;99981.25;7362115;19;20106;-65
2023/07/01 03:28:55;;;;;;;3.70;0.40;;;;;;;19.83;95.40;99980.19;7360619;19;20031;-65
2023/07/01 03:31:22;;;;;;;3.40;0.50;;;;;;;19.86;95.07;99989.63;7359784;19;20018;-64
2023/07/01 03:33:50;;;;;;;2.00;0.70;;;;;;;19.84;94.94;99987.19;7359541;19;20089;-64
2023/07/01 03:36:17;;;;;;;2.47;0.45;;;;;;;19.86;95.36;99984.28;7361335;19;20113;-65
2023/07/01 03:38:46;;;;;;;2.42;0.50;;;;;;;19.86;94.85;99984.28;7360608;19;20019;-65
2023/07/01 03:41:13;;;;;;;2.85;0.50;;;;;;;19.86;94.61;99986.94;7361523;19;20025;-64
2023/07/01 03:43:40;;;;;;;3.05;0.63;;;;;;;19.82;94.51;99978.56;7361435;19;20018;-65
2023/07/01 03:46:07;;;;;;;4.15;0.50;;;;;;;19.78;94.39;99982.75;7361722;19;20098;-64
2023/07/01 03:48:34;;;;;;;2.33;0.60;;;;;;;19.74;94.27;99981.63;7357117;19;20038;-64
2023/07/01 03:51:01;;;;;;;3.15;0.50;;;;;;;19.73;94.54;99992.50;7364046;19;20102;-65
2023/07/01 03:53:28;;;;;;;5.97;0.70;;;;;;;19.76;94.33;99990.19;7359126;19;20033;-65
2023/07/01 03:55:55;;;;;;;3.28;0.70;;;;;;;19.78;94.40;99989.97;7360809;19;20018;-65
2023/07/01 03:58:24;;;;;;;1.45;0.50;;;;;;;19.78;94.67;99984.63;7359956;19;20015;-64
2023/07/01 04:00:53;;;;;;;5.78;0.70;;;;;;;19.77;94.58;99988.31;7360396;19;21950;-65
2023/07/01 04:03:23;;;;;;;4.25;0.93;;;;;;;19.76;95.09;99987.50;7361812;19;20014;-64
2023/07/01 04:05:51;;;;;;;3.03;1.13;;;;;;;19.80;95.69;99987.88;7361369;19;20024;-65
2023/07/01 04:08:18;;;;;;;4.45;0.68;;;;;;;19.81;96.11;99987.63;7360293;19;20105;-65
2023/07/01 04:10:45;;;;;;;2.45;0.60;;;;;;;19.80;96.25;99979.88;7362514;19;21814;-65
2023/07/01 04:13:13;;;;;;;4.43;0.70;;;;;;;19.78;95.93;99977.41;7362965;19;20055;-65
2023/07/01 04:15:40;;;;;;;3.13;0.70;;;;;;;19.78;96.18;99979.28;7358764;19;20044;-65
2023/07/01 04:18:07;;;;;;;2.40;0.47;;;;;;;19.76;96.09;99976.84;7356573;19;20835;-64
2023/07/01 04:20:34;;;;;;;2.20;0.60;;;;;;;19.74;96.19;99978.13;7360985;19;20377;-64
2023/07/01 04:23:01;;;;;;;1.17;0.40;;;;;;;19.72;96.38;99975.69;7361190;19;20014;-64
2023/07/01 04:25:29;;;;;;;2.92;0.40;;;;;;;19.73;95.80;99976.50;7358789;19;20021;-65
2023/07/01 04:27:56;;;;;;;1.73;0.40;;;;;;;19.74;95.77;99980.78;7356513;19;20039;-64
2023/07/01 04:30:24;;;;;;;2.90;0.50;;;;;;;19.75;94.86;99977.09;7358940;19;20037;-65
2023/07/01 04:32:51;;;;;;;3.08;0.55;;;;;;;19.76;94.34;99978.72;7357446;19;20014;-65
2023/07/01 04:35:18;;;;;;;2.40;0.40;;;;;;;19.76;94.41;99984.06;7358522;19;20029;-64
2023/07/01 04:37:45;;;;;;;1.75;0.57;;;;;;;19.74;94.33;99975.47;7361018;19;20021;-65
2023/07/01 04:40:12;;;;;;;1.23;0.40;;;;;;;19.74;94.62;99981.63;7358800;19;20014;-65
2023/07/01 04:42:48;;;;;;;1.60;0.45;;;;;;;19.76;94.70;99981.38;7360738;19;20466;-65
2023/07/01 04:45:18;;;;;;;2.63;0.40;;;;;;;19.77;94.45;99983.00;7357803;19;20677;-64
2023/07/01 04:47:46;;;;;;;2.70;0.40;;;;;;;19.75;94.11;99983.25;7360133;19;20612;-64
2023/07/01 04:50:13;;;;;;;3.45;0.50;;;;;;;19.76;93.74;99981.38;7367997;19;20113;-64
2023/07/01 04:52:40;;;;;;;4.13;0.60;;;;;;;19.78;93.52;99981.94;7368274;19;20030;-64
2023/07/01 04:55:08;;;;;;;1.40;0.45;;;;;;;19.80;93.03;99985.22;7368122;19;21317;-65
2023/07/01 04:57:35;;;;;;;2.55;0.40;;;;;;;19.81;93.01;99987.63;7365198;19;20560;-65
2023/07/01 05:00:05;;;;;;;3.33;0.50;;;;;;;19.80;93.19;99986.03;7358819;19;20030;-65
2023/07/01 05:02:32;;;;;;;2.63;0.40;;;;;;;19.79;93.38;99984.41;7365959;19;21806;-65
2023/07/01 05:04:59;;;;;;;2.67;0.40;;;;;;;19.78;92.93;99984.63;7362841;19;20010;-67
2023/07/01 05:07:26;;;;;;;3.75;0.50;;;;;;;19.78;93.18;99985.44;7366252;19;20511;-65
2023/07/01 05:09:53;;;;;;;2.25;0.60;;;;;;;19.81;93.34;99987.63;7368093;19;20011;-65
2023/07/01 05:12:20;;;;;;;1.30;0.40;;;;;;;19.82;92.60;99988.44;7366797;19;20056;-64
2023/07/01 05:14:47;;;;;;;3.47;0.50;;;;;;;19.86;92.72;99989.63;7362027;19;20026;-64
2023/07/01 05:17:31;;;;;;;4.60;0.60;;;;;;;19.86;91.87;99984.28;7361816;19;20463;-64
2023/07/01 05:20:05;;;;;;;1.73;0.60;;;;;;;19.86;91.92;99981.59;7362701;19;20030;-64
2023/07/01 05:22:47;;;;;;;4.80;0.80;;;;;;;19.83;91.94;99987.41;7366310;19;20149;-65
2023/07/01 05:25:44;;;;;;;3.83;0.70;;;;;;;19.82;91.83;99989.25;7363138;19;20018;-65
2023/07/01 05:28:27;;;;;;;2.75;0.73;;;;;;;19.81;91.44;99992.97;7362754;19;20025;-64
2023/07/01 05:30:54;;;;;;;5.55;0.70;;;;;;;19.82;91.54;99993.78;7363356;19;20110;-64
2023/07/01 05:33:21;;;;;;;5.30;0.73;;;;;;;19.86;91.45;100001.09;7363508;19;20021;-65
2023/07/01 05:35:48;;;;;;;2.97;0.70;;;;;;;19.88;91.15;99999.00;7365186;19;20020;-64
2023/07/01 05:38:15;;;;;;;3.28;0.70;;;;;;;19.91;91.37;100008.44;7363921;19;20018;-64
2023/07/01 05:40:42;;;;;;;3.38;1.00;;;;;;;19.96;91.29;100000.53;7364888;19;20097;-64
2023/07/01 05:43:10;;;;;;;6.85;0.90;;;;;;;19.99;90.47;100000.84;7365872;19;20018;-64
2023/07/01 05:45:37;;;;;;;3.92;0.60;;;;;;;19.99;90.35;100002.72;7363622;19;20798;-64
2023/07/01 05:48:05;;;;;;;5.20;0.70;;;;;;;19.95;89.79;100002.38;7361496;19;22107;-65
2023/07/01 05:50:33;;;;;;;3.40;0.50;;;;;;;19.93;89.41;100006.31;7364538;19;20025;-64
2023/07/01 05:53:00;;;;;;;5.53;0.55;;;;;;;19.91;89.46;100016.44;7355113;19;20059;-64
2023/07/01 05:55:27;;;;;;;2.50;0.52;;;;;;;19.91;89.54;100011.88;7365913;19;20974;-65
2023/07/01 05:57:54;;;;;;;2.10;0.43;;;;;;;19.92;88.83;100015.38;7362520;19;20018;-64
2023/07/01 06:00:22;;;;;;;2.00;0.50;;;;;;;19.93;88.14;100011.66;7361835;19;20018;-64
2023/07/01 06:02:49;;;;;;;3.08;0.40;;;;;;;19.91;87.67;100011.88;7362148;19;20010;-65
2023/07/01 06:05:16;;;;;;;2.85;0.30;;;;;;;19.90;86.81;100010.28;7367056;19;20015;-64
2023/07/01 06:07:42;;;;;;;1.55;0.30;;;;;;;19.90;86.85;100010.28;7365310;19;20058;-65
2023/07/01 06:10:10;;;;;;;1.15;0.30;;;;;;;19.92;85.97;100013.50;7364578;19;20051;-65
2023/07/01 06:12:37;;;;;;;3.92;0.40;;;;;;;19.91;86.27;100016.44;7362413;19;20010;-65
2023/07/01 06:15:04;;;;;;;1.23;0.73;;;;;;;19.91;85.70;100014.56;7361866;19;20086;-65
2023/07/01 06:17:32;;;;;;;1.75;0.22;;;;;;;19.93;85.32;100023.16;7359522;19;20073;-65
2023/07/01 06:19:59;;;;;;;1.98;0.60;;;;;;;19.94;85.38;100016.78;7362507;19;20010;-65
2023/07/01 06:22:28;;;;;;;1.80;0.20;;;;;;;19.94;86.05;100021.28;7363236;19;20033;-65
2023/07/01 06:24:55;;;;;;;0.30;0.20;;;;;;;19.91;85.44;100021.78;7363667;19;20033;-65
2023/07/01 06:27:22;;;;;;;1.88;0.10;;;;;;;19.89;85.21;100030.00;7362729;19;20019;-65
2023/07/01 06:29:49;;;;;;;0.30;0.10;;;;;;;19.90;84.99;100025.50;7364420;19;20018;-65
2023/07/01 06:32:16;;;;;;;1.52;0.20;;;;;;;19.91;84.86;100032.47;7357182;19;20102;-64
2023/07/01 06:34:43;;;;;;;0.98;0.10;;;;;;;19.90;84.52;100033.50;7361075;19;20022;-64
2023/07/01 06:37:10;;;;;;;0.60;0.17;;;;;;;19.90;84.70;100036.16;7364070;19;20015;-66
2023/07/01 06:39:37;;;;;;;0.10;0.10;;;;;;;19.93;84.20;100033.03;7362518;19;20023;-65
2023/07/01 06:42:05;;;;;;;0.60;0.10;;;;;;;19.94;83.73;100038.13;7363264;19;20018;-65
2023/07/01 06:44:32;;;;;;;0.38;0.10;;;;;;;19.99;83.92;100032.09;7362334;19;20090;-65
2023/07/01 06:47:01;;;;;;;1.65;0.10;;;;;;;20.01;82.94;100040.69;7361748;19;20666;-65
2023/07/01 06:49:27;;;;;;;0.30;0.10;;;;;;;20.01;82.59;100036.13;7362398;19;20086;-64
2023/07/01 06:51:54;;;;;;;1.00;0.20;;;;;;;20.02;83.11;100043.13;7360887;19;20418;-66
2023/07/01 06:54:21;;;;;;;5.45;0.73;;;;;;;20.02;82.92;100039.63;7363164;19;20387;-64
2023/07/01 06:56:48;;;;;;;0.25;0.10;;;;;;;20.01;83.21;100041.47;7362667;19;20085;-65
2023/07/01 06:59:15;;;;;;;1.40;0.20;;;;;;;20.04;83.30;100056.25;7361653;19;20105;-65
2023/07/01 07:01:42;;;;;;;1.50;0.10;;;;;;;20.02;82.98;100055.66;7360912;19;20018;-65
2023/07/01 07:04:09;;;;;;;0.60;0.10;;;;;;;19.93;82.77;100057.06;7352077;19;20044;-65
2023/07/01 07:06:36;;;;;;;1.48;0.10;;;;;;;19.96;83.81;100052.06;7363441;19;20047;-65
2023/07/01 07:09:05;;;;;;;2.92;0.10;;;;;;;19.96;83.28;100059.28;7358841;19;20021;-66
2023/07/01 07:11:32;;;;;;;0.77;0.13;;;;;;;19.93;82.67;100060.53;7363668;19;20529;-65
2023/07/01 07:13:59;;;;;;;1.27;0.10;;;;;;;19.93;82.15;100055.19;7360904;19;20838;-65
2023/07/01 07:16:27;;;;;;;0.50;0.10;;;;;;;19.90;82.24;100066.38;7362713;19;20014;-65
2023/07/01 07:18:54;;;;;;;0.55;0.10;;;;;;;19.91;82.42;100067.19;7358690;19;20049;-65
2023/07/01 07:21:21;;;;;;;1.13;0.20;;;;;;;19.92;83.07;100072.25;7363175;19;20506;-66
2023/07/01 07:23:48;;;;;;;0.93;0.15;;;;;;;19.95;82.27;100068.34;7360843;19;20025;-67
2023/07/01 07:26:15;;;;;;;1.25;0.10;;;;;;;19.96;82.03;100069.97;7361561;19;20022;-64
2023/07/01 07:28:58;;;;;;;2.75;0.10;;;;;;;19.98;81.90;100075.88;7362520;19;20021;-64
2023/07/01 07:31:56;;;;;;;0.85;0.10;;;;;;;19.95;82.24;100073.69;7357148;19;20474;-65
2023/07/01 07:34:59;;;;;;;0.80;0.17;;;;;;;19.95;82.39;100079.84;7361542;19;20025;-66
2023/07/01 07:37:43;;;;;;;4.93;1.27;;;;;;;19.98;82.19;100076.69;7362915;19;20014;-65
2023/07/01 07:40:10;;;;;;;0.95;0.20;;;;;;;20.01;82.14;100075.41;7358053;19;20027;-65
2023/07/01 07:42:37;;;;;;;1.05;0.10;;;;;;;20.00;81.47;100076.47;7362379;19;20097;-64
2023/07/01 07:45:05;;;;;;;1.23;0.10;;;;;;;19.99;80.72;100078.31;7358186;19;20085;-65
2023/07/01 07:47:32;;;;;;;3.03;0.10;;;;;;;19.96;80.77;100086.00;7360289;19;20007;-65
2023/07/01 07:50:11;;;;;;;0.88;0.10;;;;;;;19.91;80.51;100075.19;7360121;19;20014;-65
2023/07/01 07:52:38;;;;;;;2.35;0.10;;;;;;;19.89;80.32;100080.75;7363563;19;20018;-65
2023/07/01 07:55:05;;;;;;;0.52;0.10;;;;;;;19.89;80.06;100085.28;7360515;19;20110;-65
2023/07/01 07:57:33;;;;;;;1.83;0.10;;;;;;;19.88;79.95;100081.78;7362035;19;21660;-65
2023/07/01 08:00:00;;;;;;;0.47;0.10;;;;;;;19.91;79.39;100092.00;7354452;19;20104;-66
2023/07/01 08:02:27;;;;;;;0.40;0.10;;;;;;;19.96;78.69;100086.00;7348488;19;20042;-65
2023/07/01 08:04:55;;;;;;;0.30;0.10;;;;;;;19.98;78.96;100092.72;7357087;19;20077;-66
2023/07/01 08:07:23;;;;;;;1.77;0.10;;;;;;;20.00;79.12;100092.50;7360215;19;20042;-65
2023/07/01 08:09:51;;;;;;;0.68;0.10;;;;;;;20.04;78.85;100090.97;7363591;19;20759;-65
2023/07/01 08:12:18;;;;;;;2.65;0.10;;;;;;;20.10;79.03;100094.56;7360435;19;20018;-65
2023/07/01 08:14:45;;;;;;;0.50;0.10;;;;;;;20.08;78.66;100090.28;7360999;19;20014;-65
2023/07/01 08:17:16;;;;;;;1.80;0.10;;;;;;;20.08;78.57;100095.63;7354398;19;20006;-64
2023/07/01 08:19:43;;;;;;;1.30;0.10;;;;;;;20.12;79.43;100097.81;7359815;19;20531;-64
2023/07/01 08:22:13;;;;;;;1.45;0.10;;;;;;;20.15;79.29;100095.50;7366166;19;20043;-64
2023/07/01 08:24:40;;;;;;;1.15;0.10;;;;;;;20.24;77.60;100099.44;7365784;19;20014;-64
2023/07/01 08:27:07;;;;;;;2.40;0.20;;;;;;;20.26;77.96;100109.91;7366976;19;20353;-65
2023/07/01 08:29:34;;;;;;;2.83;0.20;;;;;;;20.32;77.28;100114.31;7364380;19;20366;-66
2023/07/01 08:32:01;;;;;;;0.10;0.00;;;;;;;20.31;77.15;100108.19;7366109;19;21690;-64
2023/07/01 08:34:28;;;;;;;1.35;0.00;;;;;;;20.34;76.37;100114.91;7363377;19;20025;-65
2023/07/01 08:36:56;;;;;;;0.70;0.10;;;;;;;20.37;75.37;100114.44;7364486;19;20034;-65
2023/07/01 08:39:24;;;;;;;0.20;0.10;;;;;;;20.39;75.11;100117.69;7366607;19;20015;-68
2023/07/01 08:42:03;;;;;;;0.20;0.00;;;;;;;20.39;74.98;100109.66;7363886;19;20059;-64
2023/07/01 08:44:31;;;;;;;1.05;0.08;;;;;;;20.42;75.13;100111.88;7366537;19;20035;-65
2023/07/01 08:47:01;;;;;;;5.75;0.10;;;;;;;20.52;74.87;100125.44;7364970;19;20025;-65
2023/07/01 08:49:29;;;;;;;1.15;0.00;;;;;;;20.54;74.04;100134.06;7361719;19;20014;-66
2023/07/01 08:52:06;;;;;;;0.47;0.00;;;;;;;20.57;73.54;100114.84;7365200;19;20550;-65
2023/07/01 08:54:34;;;;;;;2.05;0.05;;;;;;;20.66;73.33;100120.69;7365544;19;20018;-65
2023/07/01 08:57:02;;;;;;;0.80;0.03;;;;;;;20.72;73.11;100123.22;7364867;19;20020;-65
2023/07/01 08:59:29;;;;;;;2.58;0.30;;;;;;;20.78;72.88;100122.25;7365252;19;20054;-65
2023/07/01 09:01:58;;;;;;;1.10;0.00;;;;;;;20.79;71.87;100121.22;7361807;19;20031;-66
2023/07/01 09:04:27;;;;;;;0.30;0.00;;;;;;;20.81;72.33;100127.16;7360925;19;20014;-65
2023/07/01 09:06:55;;;;;;;0.65;0.10;;;;;;;20.81;71.79;100129.00;7284251;19;20459;-65
2023/07/01 09:09:22;;;;;;;1.23;0.10;;;;;;;20.84;72.04;100118.63;7361597;19;20542;-66
2023/07/01 09:11:49;;;;;;;0.13;0.00;;;;;;;20.84;71.48;100133.88;7364150;19;20534;-66
2023/07/01 09:14:16;;;;;;;1.38;0.15;;;;;;;20.87;71.33;100120.03;7365216;19;20018;-64
2023/07/01 09:16:43;;;;;;;1.65;0.10;;;;;;;20.89;70.47;100121.41;7364098;19;20094;-64
2023/07/01 09:19:14;;;;;;;1.13;0.10;;;;;;;20.88;70.24;100133.16;7356989;19;20014;-65
2023/07/01 09:21:42;;;;;;;0.85;0.10;;;;;;;20.84;71.12;100126.66;7364081;19;20050;-65
2023/07/01 09:24:12;;;;;;;1.73;0.10;;;;;;;20.81;71.55;100124.47;7362857;19;20014;-65
2023/07/01 09:26:40;;;;;;;0.73;0.20;;;;;;;20.79;72.32;100131.09;7361202;19;20110;-65
2023/07/01 09:29:15;;;;;;;1.92;0.15;;;;;;;20.75;72.73;100136.13;7364889;19;21675;-65
2023/07/01 09:31:47;;;;;;;1.25;0.20;;;;;;;20.73;73.47;100137.38;7364589;19;20022;-65
2023/07/01 09:34:16;;;;;;;0.95;0.20;;;;;;;20.73;73.92;100143.53;7359667;19;20017;-65
2023/07/01 09:36:44;;;;;;;0.98;0.20;;;;;;;20.60;71.17;100151.84;7363997;19;20010;-64
2023/07/01 09:39:11;;;;;;;1.42;0.10;;;;;;;20.51;72.36;100163.94;7363950;19;20010;-64
2023/07/01 09:41:38;;;;;;;1.42;0.10;;;;;;;20.39;73.96;100152.44;7362094;19;20515;-66
2023/07/01 09:44:18;;;;;;;1.98;0.55;;;;;;;20.21;74.65;100139.19;7366399;19;20015;-65
2023/07/01 09:46:46;;;;;;;2.15;0.20;;;;;;;20.11;75.92;100137.09;7357486;19;20098;-64
2023/07/01 09:49:14;;;;;;;0.95;0.10;;;;;;;20.06;76.16;100139.66;7362573;19;20022;-64
2023/07/01 09:51:51;;;;;;;1.83;0.20;;;;;;;20.05;75.15;100135.34;7360782;19;20106;-65
2023/07/01 09:54:29;;;;;;;0.60;0.30;;;;;;;20.12;74.76;100145.91;7361087;19;20973;-65
2023/07/01 09:56:58;;;;;;;2.20;0.20;;;;;;;20.22;74.96;100133.59;7363103;19;21815;-66
2023/07/01 09:59:26;;;;;;;3.63;0.20;;;;;;;20.35;75.72;100143.28;7361633;19;20035;-66
2023/07/01 10:01:55;;;;;;;0.50;0.10;;;;;;;20.45;73.68;100130.13;7361208;19;20840;-65
2023/07/01 10:04:28;;;;;;;1.40;0.20;;;;;;;20.64;72.99;100131.59;7357524;19;20017;-65
2023/07/01 10:06:59;;;;;;;2.05;0.20;;;;;;;20.78;71.63;100134.81;7364430;19;20026;-65
2023/07/01 10:09:27;;;;;;;1.10;0.20;;;;;;;20.84;70.17;100134.69;7365189;19;20010;-66
2023/07/01 10:11:58;;;;;;;0.80;0.20;;;;;;;20.92;69.95;100128.97;7362483;19;20018;-64
2023/07/01 10:14:29;;;;;;;1.77;0.25;;;;;;;20.97;69.78;100146.19;7289690;19;20025;-65
2023/07/01 10:16:57;;;;;;;2.53;0.20;;;;;;;21.03;69.11;100138.00;7359008;19;20030;-66
2023/07/01 10:19:32;;;;;;;0.85;0.20;;;;;;;21.06;68.53;100132.19;7362362;19;20034;-65
2023/07/01 10:22:31;;;;;;;3.58;0.30;;;;;;;21.16;68.36;100134.25;7363943;19;20443;-65
2023/07/01 10:25:05;;;;;;;0.73;0.30;;;;;;;21.23;67.75;100134.94;7364546;19;20019;-65
2023/07/01 10:27:42;;;;;;;1.00;0.35;;;;;;;21.28;66.07;100135.03;7361437;19;20018;-65
2023/07/01 10:30:12;;;;;;;1.48;0.32;;;;;;;21.34;64.70;100123.34;7358808;19;20492;-65
2023/07/01 10:32:40;;;;;;;1.17;0.30;;;;;;;21.39;63.43;100123.44;7358499;19;20328;-64
2023/07/01 10:35:09;;;;;;;2.80;0.40;;;;;;;21.44;62.97;100120.84;7361729;19;20359;-65
2023/07/01 10:37:36;;;;;;;2.25;0.50;;;;;;;21.53;63.40;100130.13;7362146;19;20021;-65
2023/07/01 10:40:29;;;;;;;4.05;0.80;;;;;;;21.62;62.50;100131.34;7361938;19;20078;-64
2023/07/01 10:43:38;;;;;;;1.67;0.40;;;;;;;21.69;62.27;100118.59;7358441;19;20047;-67
2023/07/01 10:46:23;;;;;;;3.90;0.40;;;;;;;21.75;61.97;100114.13;7360684;19;20468;-65
2023/07/01 10:49:02;;;;;;;4.65;0.60;;;;;;;21.84;60.74;100128.75;7359562;19;20015;-65
2023/07/01 10:51:51;;;;;;;2.47;0.45;;;;;;;21.87;58.48;100128.28;7361464;19;20014;-65
2023/07/01 10:54:35;;;;;;;1.73;0.32;;;;;;;21.92;58.22;100131.03;7356312;19;20016;-65
2023/07/01 10:57:17;;;;;;;2.65;0.30;;;;;;;21.95;57.43;100127.88;7361700;19;20006;-65
2023/07/01 10:59:44;;;;;;;1.63;0.40;;;;;;;21.97;55.96;100131.13;7359093;19;20483;-65
2023/07/01 11:02:36;;;;;;;1.60;0.30;;;;;;;22.05;57.34;100128.03;7360289;19;20026;-65
2023/07/01 11:05:07;;;;;;;1.23;0.30;;;;;;;22.09;56.89;100125.69;7356708;19;21012;-65
2023/07/01 11:07:36;;;;;;;1.65;0.43;;;;;;;22.13;57.33;100129.50;7359759;19;20018;-65
2023/07/01 11:10:08;;;;;;;1.35;0.38;;;;;;;22.22;57.84;100138.75;7360555;19;20011;-64
2023/07/01 11:12:35;;;;;;;0.93;0.30;;;;;;;22.24;57.57;100138.50;7360980;19;20027;-65
2023/07/01 11:15:03;;;;;;;1.40;0.30;;;;;;;22.31;57.42;100144.50;7353504;19;20014;-66
2023/07/01 11:17:30;;;;;;;2.33;0.25;;;;;;;22.34;57.88;100134.09;7355879;19;20878;-65
2023/07/01 11:19:58;;;;;;;1.25;0.30;;;;;;;22.35;57.02;100151.00;7360207;19;20039;-64
2023/07/01 11:22:25;;;;;;;2.35;0.30;;;;;;;22.31;58.47;100150.66;7359679;19;20010;-64
2023/07/01 11:25:02;;;;;;;0.95;0.20;;;;;;;22.25;58.89;100154.31;7360529;19;20014;-65
2023/07/01 11:27:31;;;;;;;1.23;0.20;;;;;;;22.20;58.65;100151.56;7362234;19;20031;-65
2023/07/01 11:29:59;;;;;;;1.05;0.30;;;;;;;22.22;58.26;100146.78;7360257;19;20805;-65
2023/07/01 11:32:26;;;;;;;1.10;0.20;;;;;;;22.23;59.03;100161.00;7359939;19;20021;-64
2023/07/01 11:34:57;;;;;;;3.67;0.20;;;;;;;22.25;59.91;100151.66;7357083;19;20015;-64
2023/07/01 11:37:25;;;;;;;0.93;0.20;;;;;;;22.33;59.43;100147.75;7359769;19;20019;-64